createdAt,value
2023-02-23T00:02:08.343Z,34.00
2023-02-23T00:04:36.562Z,32.90
2023-02-23T00:07:07.962Z,34.40
2023-02-23T00:09:36.050Z,34.40
2023-02-23T00:12:09.575Z,34.10
2023-02-23T00:14:38.294Z,32.33
2023-02-23T00:17:14.366Z,30.17
2023-02-23T00:19:49.137Z,28.53
2023-02-23T00:22:16.717Z,27.53
2023-02-23T00:24:46.910Z,26.67
2023-02-23T00:27:18.997Z,26.70
2023-02-23T00:29:50.398Z,26.97
2023-02-23T00:32:19.959Z,27.90
2023-02-23T00:34:51.235Z,27.10
2023-02-23T00:37:19.664Z,26.07
2023-02-23T00:39:47.769Z,25.47
2023-02-23T00:42:15.883Z,25.43
2023-02-23T00:44:43.489Z,25.80
2023-02-23T00:47:11.068Z,26.07
2023-02-23T00:49:38.656Z,26.67
2023-02-23T00:52:06.297Z,27.53
2023-02-23T00:54:39.894Z,28.93
2023-02-23T00:57:07.528Z,28.90
2023-02-23T00:59:35.419Z,28.70
2023-02-23T01:02:03.217Z,28.87
2023-02-23T01:04:33.747Z,29.30
2023-02-23T01:07:04.094Z,28.60
2023-02-23T01:09:35.102Z,28.43
2023-02-23T01:12:02.714Z,27.83
2023-02-23T01:14:33.531Z,28.53
2023-02-23T01:17:01.255Z,27.67
2023-02-23T01:19:28.932Z,27.23
2023-02-23T01:21:59.328Z,26.93
2023-02-23T01:24:26.935Z,26.53
2023-02-23T01:26:54.580Z,26.37
2023-02-23T01:29:22.587Z,26.40
2023-02-23T01:31:53.385Z,25.77
2023-02-23T01:34:24.067Z,27.13
2023-02-23T01:36:51.720Z,28.23
2023-02-23T01:39:21.002Z,28.77
2023-02-23T01:41:51.466Z,29.43
2023-02-23T01:44:19.031Z,26.33
2023-02-23T01:46:49.243Z,27.10
2023-02-23T01:49:21.266Z,27.60
2023-02-23T01:52:07.542Z,27.70
2023-02-23T01:54:39.032Z,28.73
2023-02-23T01:57:10.777Z,28.53
2023-02-23T01:59:43.040Z,28.80
2023-02-23T02:02:13.230Z,29.43
2023-02-23T02:04:45.757Z,34.93
2023-02-23T02:07:23.030Z,34.97
2023-02-23T02:10:10.962Z,35.13
2023-02-23T02:13:00.436Z,28.83
2023-02-23T02:15:33.114Z,29.00
2023-02-23T02:18:23.415Z,28.40
2023-02-23T02:21:11.559Z,28.90
2023-02-23T02:23:48.033Z,27.90
2023-02-23T02:26:32.087Z,28.13
2023-02-23T02:29:37.117Z,27.60
2023-02-23T02:32:39.949Z,27.93
2023-02-23T02:35:22.497Z,32.17
2023-02-23T02:38:03.569Z,32.47
2023-02-23T02:40:54.482Z,28.80
2023-02-23T02:43:37.423Z,28.43
2023-02-23T02:46:30.426Z,28.80
2023-02-23T02:49:06.674Z,29.83
2023-02-23T02:51:52.735Z,30.03
2023-02-23T02:54:40.617Z,29.37
2023-02-23T02:57:11.105Z,29.97
2023-02-23T03:00:05.660Z,30.33
2023-02-23T03:02:54.729Z,30.20
2023-02-23T03:06:09.604Z,29.33
2023-02-23T03:09:20.552Z,31.03
2023-02-23T03:12:30.177Z,30.80
2023-02-23T03:15:34.888Z,30.50
2023-02-23T03:19:06.182Z,27.10
2023-02-23T03:22:07.936Z,27.23
2023-02-23T03:25:28.742Z,27.97
2023-02-23T03:28:33.406Z,28.07
2023-02-23T03:31:35.914Z,27.37
2023-02-23T03:34:38.364Z,30.03
2023-02-23T03:37:41.079Z,29.23
2023-02-23T03:40:34.975Z,29.50
2023-02-23T03:43:26.314Z,30.47
2023-02-23T03:46:15.584Z,30.87
2023-02-23T03:49:05.626Z,30.57
2023-02-23T03:51:55.826Z,32.30
2023-02-23T03:54:54.453Z,31.80
2023-02-23T03:57:45.354Z,36.30
2023-02-23T04:00:38.523Z,32.00
2023-02-23T04:03:27.919Z,31.17
2023-02-23T04:06:16.047Z,31.50
2023-02-23T04:09:06.452Z,30.97
2023-02-23T04:12:09.885Z,30.37
2023-02-23T04:14:48.176Z,31.37
2023-02-23T04:17:17.301Z,32.47
2023-02-23T04:19:52.754Z,33.43
2023-02-23T04:22:23.615Z,31.97
2023-02-23T04:24:51.899Z,30.23
2023-02-23T04:27:20.214Z,30.70
2023-02-23T04:29:47.957Z,33.10
2023-02-23T04:32:19.454Z,33.93
2023-02-23T04:34:47.124Z,31.80
2023-02-23T04:37:15.835Z,32.03
2023-02-23T04:39:48.384Z,31.97
2023-02-23T04:42:17.564Z,33.10
2023-02-23T04:44:45.779Z,32.47
2023-02-23T04:47:19.836Z,35.03
2023-02-23T04:49:47.491Z,34.23
2023-02-23T04:52:15.087Z,32.77
2023-02-23T04:54:43.373Z,33.30
2023-02-23T04:57:12.022Z,33.97
2023-02-23T04:59:39.630Z,42.17
2023-02-23T05:02:07.442Z,38.60
2023-02-23T05:04:37.857Z,37.47
2023-02-23T05:07:05.463Z,36.53
2023-02-23T05:09:33.115Z,37.27
2023-02-23T05:12:01.472Z,37.70
2023-02-23T05:14:32.673Z,36.77
2023-02-23T05:17:00.358Z,35.83
2023-02-23T05:19:28.016Z,33.00
2023-02-23T05:21:55.601Z,33.63
2023-02-23T05:24:23.250Z,35.30
2023-02-23T05:26:51.133Z,37.97
2023-02-23T05:29:19.178Z,38.83
2023-02-23T05:31:48.632Z,39.93
2023-02-23T05:34:19.148Z,39.67
2023-02-23T05:36:46.869Z,45.00
2023-02-23T05:39:14.541Z,48.03
2023-02-23T05:41:42.200Z,49.87
2023-02-23T05:44:11.643Z,47.27
2023-02-23T05:46:42.212Z,37.93
2023-02-23T05:49:13.441Z,39.53
2023-02-23T05:51:41.133Z,36.90
2023-02-23T05:54:09.674Z,40.30
2023-02-23T05:56:37.296Z,35.80
2023-02-23T05:59:05.334Z,35.23
2023-02-23T06:01:33.204Z,33.47
2023-02-23T06:04:00.842Z,33.97
2023-02-23T06:06:28.730Z,35.23
2023-02-23T06:08:56.395Z,34.50
2023-02-23T06:11:23.970Z,34.80
2023-02-23T06:13:52.380Z,35.00
2023-02-23T06:16:21.032Z,35.07
2023-02-23T06:18:48.711Z,35.23
2023-02-23T06:21:17.561Z,35.80
2023-02-23T06:23:45.677Z,35.93
2023-02-23T06:26:13.340Z,35.30
2023-02-23T06:28:40.967Z,36.83
2023-02-23T06:31:08.660Z,36.83
2023-02-23T06:33:39.787Z,35.53
2023-02-23T06:36:07.778Z,35.70
2023-02-23T06:38:35.330Z,38.40
2023-02-23T06:41:11.052Z,39.53
2023-02-23T06:43:38.738Z,48.40
2023-02-23T06:46:06.500Z,45.50
2023-02-23T06:48:37.820Z,43.07
2023-02-23T06:51:05.683Z,41.37
2023-02-23T06:53:33.566Z,42.90
2023-02-23T06:56:01.700Z,40.63
2023-02-23T06:58:29.932Z,40.33
2023-02-23T07:00:59.451Z,37.90
2023-02-23T07:03:27.163Z,41.33
2023-02-23T07:05:54.750Z,41.20
2023-02-23T07:08:22.455Z,40.93
2023-02-23T07:10:50.018Z,41.43
2023-02-23T07:13:17.675Z,41.40
2023-02-23T07:15:48.026Z,38.47
2023-02-23T07:18:16.338Z,38.03
2023-02-23T07:20:44.079Z,37.43
2023-02-23T07:23:11.747Z,37.50
2023-02-23T07:25:42.909Z,37.40
2023-02-23T07:28:15.559Z,40.17
2023-02-23T07:30:46.042Z,40.07
2023-02-23T07:33:13.676Z,40.50
2023-02-23T07:35:42.261Z,39.70
2023-02-23T07:38:09.925Z,39.77
2023-02-23T07:40:38.421Z,39.63
2023-02-23T07:43:06.346Z,36.97
2023-02-23T07:45:34.142Z,36.17
2023-02-23T07:48:02.080Z,38.63
2023-02-23T07:50:29.673Z,37.97
2023-02-23T07:52:57.338Z,38.83
2023-02-23T07:55:24.953Z,38.43
2023-02-23T07:57:52.964Z,37.53
2023-02-23T08:00:20.956Z,37.90
2023-02-23T08:02:48.522Z,39.77
2023-02-23T08:05:21.612Z,38.80
2023-02-23T08:07:49.170Z,39.50
2023-02-23T08:10:17.098Z,38.30
2023-02-23T08:12:44.794Z,37.40
2023-02-23T08:15:12.419Z,33.77
2023-02-23T08:17:43.545Z,34.90
2023-02-23T08:20:11.908Z,34.33
2023-02-23T08:22:48.897Z,35.67
2023-02-23T08:25:17.973Z,33.70
2023-02-23T08:27:47.936Z,34.10
2023-02-23T08:30:15.954Z,34.07
2023-02-23T08:32:43.608Z,33.23
2023-02-23T08:35:11.917Z,33.23
2023-02-23T08:37:40.364Z,33.03
2023-02-23T08:40:09.682Z,32.97
2023-02-23T08:42:37.420Z,32.33
2023-02-23T08:45:07.212Z,31.80
2023-02-23T08:47:36.799Z,31.50
2023-02-23T08:50:05.885Z,32.63
2023-02-23T08:52:34.005Z,31.37
2023-02-23T08:55:01.604Z,32.30
2023-02-23T08:57:33.423Z,34.23
2023-02-23T09:00:01.651Z,34.20
2023-02-23T09:02:29.307Z,36.17
2023-02-23T09:04:57.413Z,34.50
2023-02-23T09:07:25.645Z,34.37
2023-02-23T09:09:57.594Z,34.17
2023-02-23T09:12:25.681Z,35.67
2023-02-23T09:14:53.849Z,35.77
2023-02-23T09:17:23.033Z,34.47
2023-02-23T09:19:51.122Z,34.37
2023-02-23T09:22:19.644Z,34.53
2023-02-23T09:24:47.299Z,35.23
2023-02-23T09:27:15.108Z,33.87
2023-02-23T09:29:43.386Z,35.43
2023-02-23T09:32:11.887Z,35.43
2023-02-23T09:34:39.618Z,34.13
2023-02-23T09:37:07.239Z,35.90
2023-02-23T09:39:38.528Z,33.47
2023-02-23T09:42:36.770Z,32.93
2023-02-23T09:45:10.356Z,33.70
2023-02-23T09:47:51.560Z,34.03
2023-02-23T09:50:23.844Z,34.43
2023-02-23T09:53:00.077Z,34.50
2023-02-23T09:55:28.362Z,34.63
2023-02-23T09:57:58.048Z,33.83
2023-02-23T10:00:29.486Z,34.00
2023-02-23T10:03:18.388Z,35.80
2023-02-23T10:05:50.109Z,31.37
2023-02-23T10:08:20.480Z,32.80
2023-02-23T10:10:54.783Z,32.10
2023-02-23T10:13:34.261Z,30.87
2023-02-23T10:16:23.565Z,31.83
2023-02-23T10:19:28.056Z,32.40
2023-02-23T10:21:59.840Z,31.73
2023-02-23T10:24:36.211Z,34.30
2023-02-23T10:27:25.648Z,33.30
2023-02-23T10:29:55.813Z,32.90
2023-02-23T10:32:48.446Z,32.03
2023-02-23T10:35:20.300Z,32.67
2023-02-23T10:37:48.831Z,30.80
2023-02-23T10:40:21.339Z,30.07
2023-02-23T10:42:50.124Z,29.03
2023-02-23T10:45:24.776Z,30.27
2023-02-23T10:47:58.329Z,30.37
2023-02-23T10:50:29.263Z,29.37
2023-02-23T10:53:20.146Z,29.10
2023-02-23T10:56:20.228Z,29.63
2023-02-23T10:58:49.104Z,28.37
2023-02-23T11:02:00.299Z,27.97
2023-02-23T11:04:35.076Z,26.33
2023-02-23T11:07:07.612Z,23.13
2023-02-23T11:09:46.740Z,25.03
2023-02-23T11:12:19.468Z,25.30
2023-02-23T11:14:50.641Z,26.30
2023-02-23T11:17:38.259Z,26.83
2023-02-23T11:20:23.692Z,29.50
2023-02-23T11:22:52.324Z,29.60
2023-02-23T11:25:30.286Z,30.33
2023-02-23T11:27:58.906Z,31.73
2023-02-23T11:30:36.592Z,26.63
2023-02-23T11:33:12.324Z,28.83
2023-02-23T11:35:40.040Z,24.80
2023-02-23T11:38:36.948Z,26.73
2023-02-23T11:41:16.146Z,26.83
2023-02-23T11:44:02.829Z,25.93
2023-02-23T11:46:36.539Z,22.43
2023-02-23T11:49:09.697Z,21.40
2023-02-23T11:51:41.434Z,20.43
2023-02-23T11:54:22.147Z,19.77
2023-02-23T11:56:55.206Z,17.33
2023-02-23T11:59:36.343Z,14.13
2023-02-23T12:02:28.162Z,13.60
2023-02-23T12:05:08.217Z,13.97
2023-02-23T12:07:41.921Z,12.07
2023-02-23T12:10:30.955Z,12.50
2023-02-23T12:13:10.574Z,14.50
2023-02-23T12:15:43.593Z,13.47
2023-02-23T12:18:28.601Z,13.57
2023-02-23T12:21:00.394Z,13.63
2023-02-23T12:23:33.172Z,13.17
2023-02-23T12:26:12.768Z,13.83
2023-02-23T12:28:47.839Z,13.67
2023-02-23T12:31:45.318Z,12.00
2023-02-23T12:34:25.487Z,13.00
2023-02-23T12:37:31.127Z,13.67
2023-02-23T12:40:21.201Z,13.43
2023-02-23T12:43:18.536Z,14.77
2023-02-23T12:46:13.631Z,15.03
2023-02-23T12:48:50.410Z,13.73
2023-02-23T12:51:33.795Z,14.13
2023-02-23T12:54:02.403Z,15.83
2023-02-23T12:56:36.144Z,15.93
2023-02-23T12:59:22.942Z,14.93
2023-02-23T13:02:00.793Z,14.83
2023-02-23T13:05:13.213Z,14.80
2023-02-23T13:07:53.961Z,16.17
2023-02-23T13:10:39.303Z,14.90
2023-02-23T13:13:20.767Z,15.37
2023-02-23T13:16:07.427Z,16.07
2023-02-23T13:18:45.927Z,16.33
2023-02-23T13:21:34.889Z,15.73
2023-02-23T13:24:07.180Z,16.63
2023-02-23T13:26:51.131Z,16.47
2023-02-23T13:29:28.369Z,17.30
2023-02-23T13:31:56.261Z,16.87
2023-02-23T13:34:31.132Z,16.73
2023-02-23T13:37:02.938Z,16.80
2023-02-23T13:40:31.401Z,18.77
2023-02-23T13:43:29.045Z,17.33
2023-02-23T13:46:02.993Z,15.97
2023-02-23T13:48:56.000Z,17.13
2023-02-23T13:51:45.594Z,16.47
2023-02-23T13:54:13.198Z,16.77
2023-02-23T13:56:48.367Z,15.63
2023-02-23T13:59:21.731Z,16.30
2023-02-23T14:01:54.282Z,15.90
2023-02-23T14:04:35.447Z,16.10
2023-02-23T14:07:09.162Z,15.70
2023-02-23T14:09:54.546Z,14.93
2023-02-23T14:12:43.493Z,28.77
2023-02-23T14:15:37.719Z,14.37
2023-02-23T14:18:26.195Z,14.97
2023-02-23T14:21:22.257Z,15.67
2023-02-23T14:23:52.915Z,15.13
2023-02-23T14:26:29.346Z,15.57
2023-02-23T14:29:16.887Z,15.27
2023-02-23T14:32:11.864Z,14.20
2023-02-23T14:34:52.883Z,14.13
2023-02-23T14:37:35.942Z,14.10
2023-02-23T14:40:21.616Z,13.43
2023-02-23T14:42:58.654Z,15.03
2023-02-23T14:45:29.029Z,14.87
2023-02-23T14:48:09.982Z,14.20
2023-02-23T14:50:39.097Z,12.67
2023-02-23T14:53:18.476Z,14.03
2023-02-23T14:55:46.552Z,12.43
2023-02-23T14:58:32.858Z,13.27
2023-02-23T15:01:02.061Z,12.20
2023-02-23T15:03:31.012Z,12.13
2023-02-23T15:06:06.404Z,9.53
2023-02-23T15:08:50.834Z,10.30
2023-02-23T15:11:24.842Z,10.33
2023-02-23T15:13:58.185Z,11.63
2023-02-23T15:16:37.446Z,10.87
2023-02-23T15:19:07.766Z,13.03
2023-02-23T15:21:39.544Z,13.93
2023-02-23T15:24:11.868Z,10.47
2023-02-23T15:26:41.234Z,12.03
2023-02-23T15:29:14.595Z,11.37
2023-02-23T15:32:03.338Z,12.07
2023-02-23T15:34:31.291Z,12.43
2023-02-23T15:37:03.501Z,12.53
2023-02-23T15:39:53.624Z,12.07
2023-02-23T15:42:33.823Z,11.47
2023-02-23T15:45:05.630Z,11.40
2023-02-23T15:47:40.737Z,12.50
2023-02-23T15:50:20.092Z,12.07
2023-02-23T15:53:10.360Z,12.00
2023-02-23T15:55:43.584Z,11.43
2023-02-23T15:58:27.442Z,12.10
2023-02-23T16:00:57.464Z,12.40
2023-02-23T16:03:54.439Z,12.30
2023-02-23T16:06:38.512Z,12.00
2023-02-23T16:09:23.943Z,12.37
2023-02-23T16:12:01.778Z,12.00
2023-02-23T16:14:48.598Z,11.33
2023-02-23T16:17:22.010Z,12.00
2023-02-23T16:19:49.941Z,13.23
2023-02-23T16:22:27.621Z,11.20
2023-02-23T16:25:03.704Z,12.50
2023-02-23T16:27:32.629Z,12.67
2023-02-23T16:33:53.011Z,13.63
2023-02-23T16:36:41.358Z,13.10
2023-02-23T16:39:13.771Z,14.50
2023-02-23T16:41:41.535Z,16.90
2023-02-23T16:44:15.913Z,15.90
2023-02-23T16:46:58.729Z,16.37
2023-02-23T16:49:29.971Z,19.10
2023-02-23T16:51:59.174Z,16.67
2023-02-23T16:54:27.286Z,17.00
2023-02-23T16:56:55.949Z,17.00
2023-02-23T16:59:23.935Z,15.53
2023-02-23T17:01:51.591Z,15.00
2023-02-23T17:04:20.693Z,14.23
2023-02-23T17:06:52.843Z,15.40
2023-02-23T17:09:21.422Z,13.30
2023-02-23T17:11:49.094Z,14.47
2023-02-23T17:14:25.521Z,13.33
2023-02-23T17:16:53.507Z,13.07
2023-02-23T17:19:23.572Z,13.70
2023-02-23T17:21:52.456Z,13.63
2023-02-23T17:24:26.355Z,14.43
2023-02-23T17:26:55.456Z,14.47
2023-02-23T17:29:24.470Z,13.53
2023-02-23T17:31:53.774Z,13.90
2023-02-23T17:34:31.011Z,14.13
2023-02-23T17:37:08.077Z,14.33
2023-02-23T17:43:16.086Z,13.70
2023-02-23T17:45:49.708Z,13.00
2023-02-23T17:48:19.674Z,14.47
2023-02-23T17:50:56.862Z,14.57
2023-02-23T17:53:30.030Z,14.07
2023-02-23T17:55:58.286Z,14.77
2023-02-23T17:58:26.258Z,14.37
2023-02-23T18:00:58.334Z,14.20
2023-02-23T18:03:31.778Z,15.50
2023-02-23T18:06:04.670Z,16.73
2023-02-23T18:08:32.842Z,17.17
2023-02-23T18:11:00.745Z,17.13
2023-02-23T18:13:29.831Z,18.33
2023-02-23T18:16:09.828Z,18.13
2023-02-23T18:18:39.927Z,18.20
2023-02-23T18:21:12.821Z,16.53
2023-02-23T18:23:40.815Z,16.70
2023-02-23T18:26:11.462Z,18.50
2023-02-23T18:28:42.626Z,15.13
2023-02-23T18:31:20.767Z,13.17
2023-02-23T18:33:56.358Z,12.37
2023-02-23T18:36:26.514Z,11.37
2023-02-23T18:38:56.360Z,12.43
2023-02-23T18:41:25.588Z,12.83
2023-02-23T18:43:53.211Z,13.50
2023-02-23T18:46:20.844Z,13.00
2023-02-23T18:48:51.099Z,14.10
2023-02-23T18:51:20.201Z,13.33
2023-02-23T18:53:52.951Z,14.37
2023-02-23T18:56:28.036Z,14.13
2023-02-23T18:58:59.185Z,15.77
2023-02-23T19:01:29.217Z,16.17
2023-02-23T19:03:59.672Z,16.90
2023-02-23T19:06:28.426Z,17.13
2023-02-23T19:08:59.436Z,18.07
2023-02-23T19:11:31.321Z,19.03
2023-02-23T19:14:01.898Z,20.93
2023-02-23T19:16:31.956Z,21.97
2023-02-23T19:19:00.498Z,23.03
2023-02-23T19:21:28.347Z,23.83
2023-02-23T19:23:57.829Z,25.50
2023-02-23T19:26:26.655Z,24.83
2023-02-23T19:28:54.309Z,27.53
2023-02-23T19:31:25.874Z,28.37
2023-02-23T19:33:56.485Z,28.10
2023-02-23T19:36:30.577Z,28.10
2023-02-23T19:39:10.263Z,26.77
2023-02-23T19:41:39.689Z,27.30
2023-02-23T19:44:08.321Z,26.43
2023-02-23T19:46:36.816Z,27.03
2023-02-23T19:49:04.704Z,28.40
2023-02-23T19:51:34.121Z,28.07
2023-02-23T19:54:02.168Z,29.03
2023-02-23T19:56:29.854Z,25.90
2023-02-23T19:59:00.386Z,27.40
2023-02-23T20:01:29.841Z,27.00
2023-02-23T20:04:02.177Z,29.33
2023-02-23T20:06:34.484Z,27.17
2023-02-23T20:09:05.065Z,27.50
2023-02-23T20:11:33.251Z,27.00
2023-02-23T20:14:03.154Z,28.50
2023-02-23T20:16:36.053Z,27.53
2023-02-23T20:19:06.420Z,27.77
2023-02-23T20:21:34.701Z,30.03
2023-02-23T20:24:03.718Z,28.87
2023-02-23T20:26:35.243Z,29.23
2023-02-23T20:29:06.779Z,28.93
2023-02-23T20:31:36.434Z,28.80
2023-02-23T20:34:09.962Z,29.07
2023-02-23T20:36:38.330Z,28.83
2023-02-23T20:39:06.416Z,26.53
2023-02-23T20:41:34.115Z,28.13
2023-02-23T20:44:02.120Z,26.47
2023-02-23T20:46:30.908Z,27.37
2023-02-23T20:48:59.464Z,28.07
2023-02-23T20:51:27.495Z,27.27
2023-02-23T20:53:55.557Z,27.90
2023-02-23T20:56:23.274Z,28.60
2023-02-23T20:58:52.438Z,28.97
2023-02-23T21:01:27.846Z,28.60
2023-02-23T21:03:57.593Z,29.00
2023-02-23T21:06:26.833Z,27.80
2023-02-23T21:09:03.754Z,26.73
2023-02-23T21:11:32.855Z,28.17
2023-02-23T21:14:00.713Z,28.00
2023-02-23T21:16:32.197Z,28.73
2023-02-23T21:19:05.889Z,28.53
2023-02-23T21:21:44.570Z,27.47
2023-02-23T21:24:13.335Z,27.57
2023-02-23T21:26:41.053Z,27.73
2023-02-23T21:29:14.802Z,28.03
2023-02-23T21:31:48.892Z,27.07
2023-02-23T21:34:19.293Z,25.00
2023-02-23T21:36:47.914Z,27.93
2023-02-23T21:39:15.612Z,27.23
2023-02-23T21:41:43.226Z,24.70
2023-02-23T21:44:11.824Z,26.93
2023-02-23T21:46:40.375Z,25.90
2023-02-23T21:49:10.822Z,25.83
2023-02-23T21:51:39.201Z,25.73
2023-02-23T21:54:06.881Z,25.53
2023-02-23T21:56:34.857Z,24.33
2023-02-23T21:59:10.576Z,24.50
2023-02-23T22:01:39.622Z,22.40
2023-02-23T22:04:08.403Z,21.90
2023-02-23T22:06:41.315Z,22.20
2023-02-23T22:09:15.998Z,21.57
2023-02-23T22:11:46.448Z,21.23
2023-02-23T22:14:17.824Z,23.33
2023-02-23T22:16:46.232Z,21.57
2023-02-23T22:19:13.995Z,22.70
2023-02-23T22:21:42.481Z,23.93
2023-02-23T22:24:14.877Z,22.20
2023-02-23T22:26:54.064Z,22.27
2023-02-23T22:29:24.590Z,23.57
2023-02-23T22:31:52.615Z,22.93
2023-02-23T22:34:20.406Z,21.93
2023-02-23T22:36:48.519Z,22.67
2023-02-23T22:39:18.400Z,20.40
2023-02-23T22:41:47.976Z,20.67
2023-02-23T22:44:18.799Z,21.23
2023-02-23T22:46:48.221Z,21.37
2023-02-23T22:49:19.654Z,19.23
2023-02-23T22:51:47.661Z,19.87
2023-02-23T22:54:18.172Z,19.50
2023-02-23T22:56:48.911Z,20.63
2023-02-23T22:59:20.263Z,20.43
2023-02-23T23:01:50.118Z,18.93
2023-02-23T23:04:22.273Z,18.83
2023-02-23T23:06:50.576Z,19.27
2023-02-23T23:09:20.887Z,20.17
2023-02-23T23:11:51.602Z,18.90
2023-02-23T23:14:19.756Z,19.47
2023-02-23T23:16:48.008Z,18.70
2023-02-23T23:19:23.823Z,18.80
2023-02-23T23:21:55.272Z,19.43
2023-02-23T23:24:24.670Z,20.60
2023-02-23T23:26:59.351Z,20.77
2023-02-23T23:29:32.447Z,22.10
2023-02-23T23:32:02.417Z,22.77
2023-02-23T23:34:33.486Z,21.37
2023-02-23T23:37:02.715Z,21.90
2023-02-23T23:39:32.835Z,21.13
2023-02-23T23:42:04.516Z,22.33
2023-02-23T23:44:33.726Z,23.10
2023-02-23T23:47:05.430Z,22.10
2023-02-23T23:49:38.544Z,21.77
2023-02-23T23:52:06.891Z,22.80
2023-02-23T23:54:38.936Z,23.07
2023-02-23T23:57:11.487Z,23.13
2023-02-23T23:59:45.976Z,22.67
